createdAt,value
2023-03-22T00:01:43.438Z,11.45
2023-03-22T00:04:46.199Z,11.33
2023-03-22T00:07:54.247Z,11.33
2023-03-22T00:10:56.876Z,11.30
2023-03-22T00:13:59.755Z,11.24
2023-03-22T00:17:02.467Z,11.15
2023-03-22T00:20:08.653Z,10.94
2023-03-22T00:23:11.534Z,10.88
2023-03-22T00:26:15.139Z,10.88
2023-03-22T00:29:19.957Z,10.94
2023-03-22T00:32:22.792Z,10.97
2023-03-22T00:35:25.801Z,10.89
2023-03-22T00:38:42.482Z,10.79
2023-03-22T00:41:46.293Z,10.74
2023-03-22T00:44:48.921Z,10.74
2023-03-22T00:47:51.530Z,10.79
2023-03-22T00:50:54.234Z,10.73
2023-03-22T00:53:56.874Z,10.76
2023-03-22T00:56:59.402Z,10.73
2023-03-22T01:00:16.132Z,10.72
2023-03-22T01:03:22.031Z,10.64
2023-03-22T01:06:25.004Z,10.54
2023-03-22T01:09:30.962Z,10.47
2023-03-22T01:12:33.499Z,10.44
2023-03-22T01:15:36.704Z,10.41
2023-03-22T01:18:39.623Z,10.35
2023-03-22T01:21:42.856Z,10.32
2023-03-22T01:24:45.439Z,10.37
2023-03-22T01:27:48.260Z,10.32
2023-03-22T01:30:51.473Z,10.41
2023-03-22T01:33:54.193Z,10.41
2023-03-22T01:36:58.525Z,10.43
2023-03-22T01:40:01.757Z,10.33
2023-03-22T01:43:11.890Z,10.31
2023-03-22T01:46:14.916Z,10.26
2023-03-22T01:49:24.316Z,10.19
2023-03-22T01:52:27.704Z,10.09
2023-03-22T01:55:44.017Z,9.99
2023-03-22T01:58:52.390Z,9.84
2023-03-22T02:02:02.858Z,9.81
2023-03-22T02:05:05.477Z,9.79
2023-03-22T02:08:08.937Z,9.80
2023-03-22T02:11:38.614Z,9.83
2023-03-22T02:15:10.909Z,9.82
2023-03-22T02:19:10.998Z,9.81
2023-03-22T02:22:45.242Z,9.76
2023-03-22T02:26:07.138Z,9.78
2023-03-22T02:29:34.938Z,9.69
2023-03-22T02:32:52.659Z,9.68
2023-03-22T02:36:11.275Z,9.64
2023-03-22T02:39:38.855Z,9.64
2023-03-22T02:43:01.451Z,9.63
2023-03-22T02:46:20.384Z,9.67
2023-03-22T02:49:33.076Z,9.63
2023-03-22T02:52:44.324Z,9.69
2023-03-22T02:55:52.783Z,9.76
2023-03-22T02:58:59.597Z,9.88
2023-03-22T03:02:03.842Z,9.84
2023-03-22T03:05:08.610Z,9.87
2023-03-22T03:08:14.332Z,9.94
2023-03-22T03:11:18.300Z,9.93
2023-03-22T03:14:29.087Z,9.99
2023-03-22T03:18:00.983Z,10.02
2023-03-22T03:21:09.910Z,10.00
2023-03-22T03:24:36.677Z,9.99
2023-03-22T03:27:51.064Z,10.06
2023-03-22T03:31:03.544Z,9.92
2023-03-22T03:34:13.580Z,9.85
2023-03-22T03:37:22.857Z,9.76
2023-03-22T03:40:33.000Z,9.81
2023-03-22T03:43:37.241Z,9.86
2023-03-22T03:46:41.820Z,9.73
2023-03-22T03:49:44.608Z,9.82
2023-03-22T03:52:47.251Z,9.89
2023-03-22T03:55:49.926Z,9.78
2023-03-22T03:58:53.096Z,9.61
2023-03-22T04:01:56.303Z,9.43
2023-03-22T04:05:04.701Z,9.41
2023-03-22T04:08:07.882Z,9.46
2023-03-22T04:11:10.685Z,9.37
2023-03-22T04:14:14.914Z,9.42
2023-03-22T04:17:17.668Z,9.48
2023-03-22T04:20:20.997Z,9.51
2023-03-22T04:23:25.734Z,9.55
2023-03-22T04:26:29.368Z,9.55
2023-03-22T04:30:01.386Z,9.53
2023-03-22T04:33:39.589Z,9.53
2023-03-22T04:36:54.460Z,9.43
2023-03-22T04:40:16.042Z,9.44
2023-03-22T04:43:35.650Z,9.48
2023-03-22T04:46:42.859Z,9.47
2023-03-22T04:49:46.260Z,9.41
2023-03-22T04:52:51.319Z,9.41
2023-03-22T04:55:57.577Z,9.40
2023-03-22T04:59:02.522Z,9.36
2023-03-22T05:02:05.628Z,9.45
2023-03-22T05:05:16.477Z,9.37
2023-03-22T05:08:25.200Z,9.46
2023-03-22T05:11:28.579Z,9.47
2023-03-22T05:14:54.469Z,9.53
2023-03-22T05:18:02.248Z,9.49
2023-03-22T05:21:16.559Z,9.61
2023-03-22T05:24:20.742Z,9.65
2023-03-22T05:27:31.510Z,9.63
2023-03-22T05:30:48.806Z,9.79
2023-03-22T05:34:12.244Z,10.05
2023-03-22T05:37:16.859Z,10.22
2023-03-22T05:40:29.459Z,10.61
2023-03-22T05:43:32.903Z,10.90
2023-03-22T05:46:35.913Z,11.09
2023-03-22T05:50:01.464Z,11.17
2023-03-22T05:53:05.658Z,11.32
2023-03-22T05:56:28.613Z,11.46
2023-03-22T05:59:39.277Z,11.61
2023-03-22T06:02:47.323Z,11.70
2023-03-22T06:05:54.966Z,11.84
2023-03-22T06:09:16.958Z,11.84
2023-03-22T06:12:27.210Z,11.90
2023-03-22T06:15:49.041Z,12.09
2023-03-22T06:18:56.063Z,12.28
2023-03-22T06:21:58.805Z,12.57
2023-03-22T06:25:02.862Z,12.83
2023-03-22T06:28:12.846Z,12.85
2023-03-22T06:31:22.892Z,12.92
2023-03-22T06:34:31.039Z,13.05
2023-03-22T06:37:33.831Z,13.23
2023-03-22T06:40:36.752Z,13.48
2023-03-22T06:43:39.546Z,13.90
2023-03-22T06:47:03.222Z,14.06
2023-03-22T06:50:24.287Z,14.17
2023-03-22T06:53:42.388Z,14.33
2023-03-22T06:56:46.174Z,14.49
2023-03-22T06:59:48.765Z,14.72
2023-03-22T07:02:52.767Z,14.93
2023-03-22T07:06:07.760Z,14.92
2023-03-22T07:09:13.734Z,15.01
2023-03-22T07:12:18.737Z,14.90
2023-03-22T07:15:24.818Z,14.90
2023-03-22T07:18:34.504Z,15.01
2023-03-22T07:21:37.085Z,15.15
2023-03-22T07:24:55.712Z,15.42
2023-03-22T07:28:00.835Z,15.76
2023-03-22T07:31:07.311Z,15.80
2023-03-22T07:34:28.677Z,16.07
2023-03-22T07:37:38.312Z,16.42
2023-03-22T07:40:46.561Z,16.66
2023-03-22T07:43:58.263Z,16.68
2023-03-22T07:47:06.180Z,16.74
2023-03-22T07:50:15.370Z,16.90
2023-03-22T07:53:20.467Z,17.11
2023-03-22T07:56:23.503Z,17.34
2023-03-22T07:59:26.527Z,17.25
2023-03-22T08:02:30.378Z,17.49
2023-03-22T08:05:35.359Z,17.60
2023-03-22T08:08:40.700Z,17.99
2023-03-22T08:11:43.875Z,18.21
2023-03-22T08:14:50.577Z,17.92
2023-03-22T08:17:58.370Z,18.12
2023-03-22T08:21:11.187Z,18.21
2023-03-22T08:24:15.276Z,18.36
2023-03-22T08:27:47.551Z,18.28
2023-03-22T08:30:51.729Z,17.89
2023-03-22T08:33:56.567Z,17.98
2023-03-22T08:36:59.170Z,18.05
2023-03-22T08:40:02.097Z,17.74
2023-03-22T08:43:13.195Z,18.20
2023-03-22T08:46:15.862Z,18.59
2023-03-22T08:49:20.797Z,18.28
2023-03-22T08:52:31.108Z,17.28
2023-03-22T08:55:49.240Z,17.37
2023-03-22T08:59:12.066Z,17.27
2023-03-22T09:02:30.319Z,17.46
2023-03-22T09:05:34.154Z,17.38
2023-03-22T09:08:37.030Z,17.99
2023-03-22T09:11:44.872Z,18.86
2023-03-22T09:14:49.225Z,20.59
2023-03-22T09:17:52.633Z,21.02
2023-03-22T09:20:55.463Z,20.85
2023-03-22T09:24:03.172Z,20.76
2023-03-22T09:27:16.103Z,20.44
2023-03-22T09:30:22.749Z,20.54
2023-03-22T09:33:25.657Z,20.40
2023-03-22T09:36:34.858Z,20.44
2023-03-22T09:39:38.535Z,20.49
2023-03-22T09:42:54.967Z,20.26
2023-03-22T09:45:58.778Z,20.24
2023-03-22T09:49:06.178Z,20.45
2023-03-22T09:52:14.462Z,20.69
2023-03-22T09:55:30.429Z,20.80
2023-03-22T09:58:36.176Z,20.57
2023-03-22T10:01:52.224Z,20.63
2023-03-22T10:05:09.832Z,20.46
2023-03-22T10:08:32.446Z,20.71
2023-03-22T10:11:38.088Z,20.62
2023-03-22T10:14:46.854Z,19.90
2023-03-22T10:17:55.244Z,19.46
2023-03-22T10:21:04.451Z,19.05
2023-03-22T10:24:17.009Z,18.90
2023-03-22T10:27:21.997Z,18.69
2023-03-22T10:30:28.650Z,18.43
2023-03-22T10:33:37.659Z,18.10
2023-03-22T10:36:41.604Z,18.00
2023-03-22T10:39:51.325Z,17.74
2023-03-22T10:43:03.717Z,17.50
2023-03-22T10:46:12.504Z,17.35
2023-03-22T10:49:28.600Z,17.30
2023-03-22T10:52:37.042Z,17.25
2023-03-22T10:55:44.277Z,16.97
2023-03-22T10:58:51.307Z,16.89
2023-03-22T11:01:54.318Z,16.75
2023-03-22T11:05:00.977Z,16.65
2023-03-22T11:08:04.042Z,16.50
2023-03-22T11:11:17.720Z,16.46
2023-03-22T11:14:26.839Z,16.44
2023-03-22T11:17:31.184Z,16.35
2023-03-22T11:20:35.030Z,16.35
2023-03-22T11:23:42.071Z,16.29
2023-03-22T11:27:05.713Z,16.24
2023-03-22T11:30:21.972Z,16.20
2023-03-22T11:33:26.059Z,16.21
2023-03-22T11:36:29.410Z,16.14
2023-03-22T11:39:32.081Z,16.19
2023-03-22T11:42:35.773Z,16.11
2023-03-22T11:45:42.682Z,16.22
2023-03-22T11:48:48.531Z,16.23
2023-03-22T11:51:52.371Z,16.26
2023-03-22T11:54:56.468Z,16.28
2023-03-22T11:57:58.989Z,16.41
2023-03-22T12:01:02.943Z,16.46
2023-03-22T12:04:11.542Z,16.67
2023-03-22T12:07:17.250Z,16.80
2023-03-22T12:10:26.709Z,17.08
2023-03-22T12:14:01.781Z,17.43
2023-03-22T12:17:24.474Z,18.17
2023-03-22T12:20:52.119Z,18.94
2023-03-22T12:24:01.110Z,20.10
2023-03-22T12:27:27.086Z,20.91
2023-03-22T12:30:33.904Z,21.14
2023-03-22T12:33:50.384Z,21.01
2023-03-22T12:36:56.862Z,20.89
2023-03-22T12:40:06.038Z,20.39
2023-03-22T12:43:14.455Z,20.10
2023-03-22T12:46:22.220Z,19.85
2023-03-22T12:49:52.406Z,19.65
2023-03-22T12:52:57.055Z,19.66
2023-03-22T12:56:01.099Z,19.73
2023-03-22T12:59:08.437Z,19.92
2023-03-22T13:02:27.574Z,20.04
2023-03-22T13:05:33.892Z,20.06
2023-03-22T13:09:09.153Z,20.16
2023-03-22T13:12:17.547Z,20.70
2023-03-22T13:15:41.374Z,21.22
2023-03-22T13:18:45.325Z,22.49
2023-03-22T13:21:50.024Z,23.42
2023-03-22T13:25:13.268Z,24.71
2023-03-22T13:28:26.241Z,24.75
2023-03-22T13:31:46.547Z,24.86
2023-03-22T13:34:52.824Z,24.50
2023-03-22T13:38:03.069Z,24.06
2023-03-22T13:41:25.931Z,23.81
2023-03-22T13:44:39.127Z,23.52
2023-03-22T13:47:46.903Z,23.11
2023-03-22T13:50:52.336Z,22.69
2023-03-22T13:54:20.667Z,22.48
2023-03-22T13:57:59.414Z,21.79
2023-03-22T14:01:49.640Z,21.39
2023-03-22T14:04:57.244Z,21.39
2023-03-22T14:08:04.359Z,21.49
2023-03-22T14:11:28.899Z,22.14
2023-03-22T14:14:40.580Z,21.92
2023-03-22T14:17:47.047Z,21.74
2023-03-22T14:20:55.064Z,21.08
